createdAt,value
2023-05-04T00:00:22.548Z,100.00
2023-05-04T00:03:11.502Z,100.00
2023-05-04T00:06:00.267Z,100.00
2023-05-04T00:08:50.342Z,100.00
2023-05-04T00:11:39.133Z,100.00
2023-05-04T00:14:28.277Z,100.00
2023-05-04T00:17:16.995Z,100.00
2023-05-04T00:20:07.470Z,100.00
2023-05-04T00:22:56.421Z,100.00
2023-05-04T00:25:46.581Z,100.00
2023-05-04T00:28:35.278Z,100.00
2023-05-04T00:31:24.000Z,100.00
2023-05-04T00:34:13.086Z,100.00
2023-05-04T00:37:02.027Z,100.00
2023-05-04T00:39:51.013Z,100.00
2023-05-04T00:42:41.416Z,100.00
2023-05-04T00:45:30.274Z,100.00
2023-05-04T00:48:19.308Z,100.00
2023-05-04T00:51:09.259Z,100.00
2023-05-04T00:53:59.218Z,100.00
2023-05-04T00:56:48.916Z,100.00
2023-05-04T00:59:39.386Z,100.00
2023-05-04T01:02:28.128Z,100.00
2023-05-04T01:05:17.311Z,100.00
2023-05-04T01:08:15.290Z,100.00
2023-05-04T01:11:12.440Z,100.00
2023-05-04T01:14:03.004Z,100.00
2023-05-04T01:16:57.680Z,100.00
2023-05-04T01:19:46.459Z,100.00
2023-05-04T01:22:37.538Z,100.00
2023-05-04T01:25:33.532Z,100.00
2023-05-04T01:28:33.150Z,100.00
2023-05-04T01:31:27.490Z,100.00
2023-05-04T01:34:18.220Z,100.00
2023-05-04T01:37:09.929Z,100.00
2023-05-04T01:40:00.040Z,100.00
2023-05-04T01:42:48.826Z,100.00
2023-05-04T01:45:37.606Z,100.00
2023-05-04T01:48:28.418Z,100.00
2023-05-04T01:51:17.268Z,100.00
2023-05-04T01:54:06.225Z,100.00
2023-05-04T01:56:56.269Z,100.00
2023-05-04T01:59:45.073Z,100.00
2023-05-04T02:02:33.874Z,100.00
2023-05-04T02:05:23.610Z,100.00
2023-05-04T02:08:12.303Z,100.00
2023-05-04T02:11:01.017Z,100.00
2023-05-04T02:13:51.153Z,100.00
2023-05-04T02:16:40.172Z,100.00
2023-05-04T02:19:29.145Z,100.00
2023-05-04T02:22:17.871Z,100.00
2023-05-04T02:25:08.396Z,100.00
2023-05-04T02:27:58.913Z,100.00
2023-05-04T02:30:48.981Z,100.00
2023-05-04T02:33:37.842Z,100.00
2023-05-04T02:36:26.510Z,100.00
2023-05-04T02:39:15.313Z,100.00
2023-05-04T02:42:04.102Z,100.00
2023-05-04T02:44:52.858Z,100.00
2023-05-04T02:47:42.924Z,100.00
2023-05-04T02:50:32.348Z,100.00
2023-05-04T02:53:21.147Z,100.00
2023-05-04T02:56:09.890Z,100.00
2023-05-04T02:58:58.730Z,100.00
2023-05-04T03:01:47.515Z,100.00
2023-05-04T03:04:37.782Z,100.00
2023-05-04T03:07:27.446Z,100.00
2023-05-04T03:10:16.311Z,100.00
2023-05-04T03:13:06.891Z,100.00
2023-05-04T03:15:56.528Z,100.00
2023-05-04T03:21:53.094Z,100.00
2023-05-04T03:24:41.801Z,100.00
2023-05-04T03:27:30.614Z,100.00
2023-05-04T03:30:19.837Z,100.00
2023-05-04T03:33:09.560Z,100.00
2023-05-04T03:35:58.345Z,100.00
2023-05-04T03:38:48.494Z,100.00
2023-05-04T03:41:37.295Z,100.00
2023-05-04T03:44:27.329Z,100.00
2023-05-04T03:47:16.177Z,100.00
2023-05-04T03:50:05.694Z,100.00
2023-05-04T03:52:54.971Z,100.00
2023-05-04T03:55:47.152Z,100.00
2023-05-04T03:58:36.272Z,100.00
2023-05-04T04:01:26.725Z,100.00
2023-05-04T04:04:15.538Z,100.00
2023-05-04T04:07:04.391Z,100.00
2023-05-04T04:09:53.494Z,100.00
2023-05-04T04:12:43.534Z,100.00
2023-05-04T04:15:32.308Z,100.00
2023-05-04T04:18:21.243Z,100.00
2023-05-04T04:21:10.659Z,100.00
2023-05-04T04:23:59.389Z,100.00
2023-05-04T04:26:48.190Z,100.00
2023-05-04T04:29:39.554Z,100.00
2023-05-04T04:32:29.123Z,100.00
2023-05-04T04:35:17.859Z,100.00
2023-05-04T04:38:06.985Z,100.00
2023-05-04T04:40:55.708Z,100.00
2023-05-04T04:43:44.492Z,100.00
2023-05-04T04:46:34.927Z,100.00
2023-05-04T04:49:23.690Z,100.00
2023-05-04T04:52:12.617Z,100.00
2023-05-04T04:55:01.515Z,100.00
2023-05-04T04:57:50.685Z,100.00
2023-05-04T05:00:39.586Z,100.00
2023-05-04T05:03:29.748Z,100.00
2023-05-04T05:06:18.669Z,100.00
2023-05-04T05:09:09.469Z,100.00
2023-05-04T05:11:58.280Z,100.00
2023-05-04T05:14:47.347Z,100.00
2023-05-04T05:17:37.662Z,100.00
2023-05-04T05:20:28.608Z,100.00
2023-05-04T05:23:17.900Z,100.00
2023-05-04T05:26:08.076Z,100.00
2023-05-04T05:28:56.929Z,100.00
2023-05-04T05:31:46.682Z,100.00
2023-05-04T05:34:38.940Z,100.00
2023-05-04T05:37:29.088Z,100.00
2023-05-04T05:40:19.142Z,100.00
2023-05-04T05:43:07.854Z,100.00
2023-05-04T05:45:56.806Z,100.00
2023-05-04T05:48:45.716Z,100.00
2023-05-04T05:51:34.861Z,100.00
2023-05-04T05:54:24.966Z,100.00
2023-05-04T05:57:13.778Z,100.00
2023-05-04T06:00:06.226Z,100.00
2023-05-04T06:03:00.980Z,100.00
2023-05-04T06:05:49.676Z,100.00
2023-05-04T06:08:41.547Z,100.00
2023-05-04T06:11:34.037Z,100.00
2023-05-04T06:14:24.222Z,100.00
2023-05-04T06:17:13.023Z,100.00
2023-05-04T06:20:01.760Z,100.00
2023-05-04T06:22:50.630Z,100.00
2023-05-04T06:25:39.399Z,100.00
2023-05-04T06:28:29.560Z,100.00
2023-05-04T06:31:18.437Z,100.00
2023-05-04T06:34:07.264Z,100.00
2023-05-04T06:36:56.627Z,100.00
2023-05-04T06:39:45.461Z,100.00
2023-05-04T06:42:34.139Z,100.00
2023-05-04T06:45:24.321Z,100.00
2023-05-04T06:48:13.018Z,100.00
2023-05-04T06:51:03.095Z,100.00
2023-05-04T06:53:52.225Z,100.00
2023-05-04T06:56:41.057Z,100.00
2023-05-04T06:59:29.770Z,100.00
2023-05-04T07:02:20.212Z,100.00
2023-05-04T07:05:09.785Z,100.00
2023-05-04T07:07:59.649Z,100.00
2023-05-04T07:10:48.595Z,100.00
2023-05-04T07:13:37.590Z,100.00
2023-05-04T07:16:29.193Z,100.00
2023-05-04T07:19:19.426Z,100.00
2023-05-04T07:22:08.132Z,100.00
2023-05-04T07:24:59.150Z,100.00
2023-05-04T07:27:48.731Z,100.00
2023-05-04T07:30:37.426Z,100.00
2023-05-04T07:33:26.713Z,100.00
2023-05-04T07:36:16.917Z,100.00
2023-05-04T07:39:05.725Z,100.00
2023-05-04T07:41:55.018Z,100.00
2023-05-04T07:44:43.778Z,100.00
2023-05-04T07:47:35.178Z,100.00
2023-05-04T07:50:25.928Z,100.00
2023-05-04T07:53:15.976Z,100.00
2023-05-04T07:56:11.208Z,100.00
2023-05-04T07:58:59.906Z,100.00
2023-05-04T08:01:48.727Z,100.00
2023-05-04T08:04:37.413Z,100.00
2023-05-04T08:07:26.317Z,100.00
2023-05-04T08:10:16.765Z,100.00
2023-05-04T08:13:05.870Z,100.00
2023-05-04T08:15:54.773Z,100.00
2023-05-04T08:18:43.529Z,100.00
2023-05-04T08:21:33.632Z,100.00
2023-05-04T08:24:22.954Z,100.00
2023-05-04T08:27:15.643Z,100.00
2023-05-04T08:30:05.170Z,100.00
2023-05-04T08:32:55.467Z,100.00
2023-05-04T08:35:44.272Z,100.00
2023-05-04T08:38:32.949Z,100.00
2023-05-04T08:41:22.088Z,100.00
2023-05-04T08:44:13.224Z,100.00
2023-05-04T08:47:04.738Z,100.00
2023-05-04T08:49:55.347Z,100.00
2023-05-04T08:52:53.733Z,100.00
2023-05-04T08:55:45.041Z,100.00
2023-05-04T08:58:38.162Z,100.00
2023-05-04T09:01:29.356Z,100.00
2023-05-04T09:04:19.517Z,100.00
2023-05-04T09:07:08.306Z,100.00
2023-05-04T09:09:57.140Z,100.00
2023-05-04T09:12:46.525Z,100.00
2023-05-04T09:15:35.250Z,100.00
2023-05-04T09:18:36.250Z,100.00
2023-05-04T09:21:30.624Z,100.00
2023-05-04T09:24:28.215Z,100.00
2023-05-04T09:27:21.361Z,100.00
2023-05-04T09:30:13.870Z,100.00
2023-05-04T09:33:03.121Z,99.92
2023-05-04T09:35:53.486Z,90.99
2023-05-04T09:38:42.294Z,99.59
2023-05-04T09:41:34.334Z,95.73
2023-05-04T09:44:26.911Z,100.00
2023-05-04T09:47:18.516Z,83.51
2023-05-04T09:50:19.890Z,75.51
2023-05-04T09:53:11.888Z,72.81
2023-05-04T09:56:13.571Z,65.09
2023-05-04T09:59:03.256Z,73.62
2023-05-04T10:01:52.329Z,70.51
2023-05-04T10:04:43.903Z,64.33
2023-05-04T10:07:34.223Z,59.19
2023-05-04T10:10:24.742Z,66.69
2023-05-04T10:13:13.579Z,70.05
2023-05-04T10:16:16.370Z,61.14
2023-05-04T10:19:53.853Z,58.57
2023-05-04T10:23:15.210Z,54.96
2023-05-04T10:26:42.510Z,57.09
2023-05-04T10:29:34.270Z,52.54
2023-05-04T10:32:23.992Z,49.60
2023-05-04T10:35:14.306Z,48.97
2023-05-04T10:38:04.394Z,51.60
2023-05-04T10:40:53.756Z,56.02
2023-05-04T10:43:48.620Z,51.73
2023-05-04T10:46:37.691Z,51.67
2023-05-04T10:49:26.655Z,50.09
2023-05-04T10:52:17.883Z,48.57
2023-05-04T10:55:08.976Z,45.45
2023-05-04T10:57:58.403Z,44.20
2023-05-04T11:00:51.583Z,41.66
2023-05-04T11:03:41.837Z,43.62
2023-05-04T11:06:30.826Z,40.02
2023-05-04T11:09:20.714Z,45.37
2023-05-04T11:12:11.428Z,43.49
2023-05-04T11:15:09.080Z,40.45
2023-05-04T11:17:59.251Z,40.49
2023-05-04T11:20:48.072Z,37.64
2023-05-04T11:23:37.936Z,35.17
2023-05-04T11:26:28.425Z,38.91
2023-05-04T11:29:17.343Z,39.70
2023-05-04T11:32:06.415Z,42.15
2023-05-04T11:34:58.268Z,38.54
2023-05-04T11:37:49.589Z,38.66
2023-05-04T11:40:41.250Z,38.66
2023-05-04T11:43:30.573Z,41.06
2023-05-04T11:46:19.987Z,41.07
2023-05-04T11:49:09.158Z,39.42
2023-05-04T11:52:08.461Z,37.51
2023-05-04T11:54:58.075Z,40.40
2023-05-04T11:57:46.855Z,39.03
2023-05-04T12:00:41.542Z,36.79
2023-05-04T12:03:51.141Z,35.55
2023-05-04T12:06:41.794Z,37.48
2023-05-04T12:09:32.026Z,39.24
2023-05-04T12:12:23.214Z,36.85
2023-05-04T12:15:12.219Z,39.95
2023-05-04T12:18:03.021Z,38.49
2023-05-04T12:20:52.578Z,40.04
2023-05-04T12:23:42.935Z,39.80
2023-05-04T12:26:33.357Z,39.17
2023-05-04T12:29:22.132Z,38.61
2023-05-04T12:32:13.901Z,37.10
2023-05-04T12:35:03.949Z,34.25
2023-05-04T12:37:52.665Z,35.62
2023-05-04T12:40:41.672Z,37.88
2023-05-04T12:43:32.970Z,36.14
2023-05-04T12:46:22.614Z,36.73
2023-05-04T12:49:12.053Z,38.04
2023-05-04T12:52:00.816Z,36.30
2023-05-04T12:54:49.804Z,35.85
2023-05-04T12:57:39.501Z,36.28
2023-05-04T13:00:31.243Z,35.95
2023-05-04T13:03:21.760Z,37.07
2023-05-04T13:06:11.796Z,34.87
2023-05-04T13:09:01.691Z,36.71
2023-05-04T13:11:52.827Z,34.18
2023-05-04T13:14:41.546Z,32.83
2023-05-04T13:17:33.800Z,33.30
2023-05-04T13:20:22.674Z,36.01
2023-05-04T13:23:11.405Z,33.42
2023-05-04T13:26:00.203Z,33.81
2023-05-04T13:28:49.634Z,35.36
2023-05-04T13:31:44.791Z,34.86
2023-05-04T13:34:35.217Z,35.28
2023-05-04T13:37:23.931Z,35.59
2023-05-04T13:40:14.462Z,31.37
2023-05-04T13:43:03.192Z,30.16
2023-05-04T13:45:52.360Z,32.26
2023-05-04T13:48:41.055Z,33.06
2023-05-04T13:51:32.105Z,32.72
2023-05-04T13:54:20.803Z,32.84
2023-05-04T13:57:09.507Z,33.40
2023-05-04T14:02:59.401Z,30.30
2023-05-04T14:05:48.491Z,31.13
2023-05-04T14:08:38.618Z,31.74
2023-05-04T14:11:27.586Z,34.38
2023-05-04T14:14:16.520Z,32.42
2023-05-04T14:17:07.931Z,34.13
2023-05-04T14:19:58.797Z,32.81
2023-05-04T14:22:48.165Z,31.82
2023-05-04T14:25:38.852Z,32.33
2023-05-04T14:28:27.568Z,33.02
2023-05-04T14:31:16.555Z,32.23
2023-05-04T14:34:05.255Z,32.04
2023-05-04T14:36:53.936Z,29.75
2023-05-04T14:39:42.617Z,31.67
2023-05-04T14:42:32.756Z,31.39
2023-05-04T14:45:22.562Z,32.80
2023-05-04T14:48:11.307Z,32.03
2023-05-04T14:50:59.980Z,33.10
2023-05-04T14:53:48.680Z,33.86
2023-05-04T14:56:37.431Z,34.77
2023-05-04T14:59:36.975Z,35.82
2023-05-04T15:02:35.732Z,36.42
2023-05-04T15:05:24.571Z,36.73
2023-05-04T15:08:13.256Z,35.30
2023-05-04T15:11:02.427Z,36.20
2023-05-04T15:13:59.895Z,35.63
2023-05-04T15:16:59.160Z,35.69
2023-05-04T15:20:02.907Z,36.51
2023-05-04T15:22:54.550Z,38.67
2023-05-04T15:25:53.196Z,37.16
2023-05-04T15:28:42.466Z,38.42
2023-05-04T15:31:31.210Z,36.18
2023-05-04T15:34:21.400Z,37.86
2023-05-04T15:37:10.350Z,39.65
2023-05-04T15:40:03.346Z,37.37
2023-05-04T15:42:52.493Z,40.05
2023-05-04T15:45:41.186Z,39.10
2023-05-04T15:48:30.001Z,40.92
2023-05-04T15:51:20.900Z,39.46
2023-05-04T15:54:09.710Z,40.54
2023-05-04T15:57:05.318Z,41.95
2023-05-04T15:59:59.288Z,41.50
2023-05-04T16:03:00.617Z,41.07
2023-05-04T16:05:57.941Z,41.97
2023-05-04T16:08:48.163Z,44.15
2023-05-04T16:11:37.485Z,44.26
2023-05-04T16:14:31.776Z,43.41
2023-05-04T16:17:20.528Z,42.43
2023-05-04T16:20:10.712Z,40.62
2023-05-04T16:22:59.474Z,42.08
2023-05-04T16:25:49.628Z,43.19
2023-05-04T16:28:40.311Z,43.81
2023-05-04T16:31:29.087Z,44.19
2023-05-04T16:34:18.066Z,45.30
2023-05-04T16:37:07.886Z,45.48
2023-05-04T16:39:59.570Z,43.31
2023-05-04T16:42:49.931Z,44.86
2023-05-04T16:45:39.565Z,45.46
2023-05-04T16:48:28.433Z,45.84
2023-05-04T16:51:17.179Z,45.97
2023-05-04T16:54:05.957Z,46.08
2023-05-04T16:56:57.930Z,47.38
2023-05-04T16:59:48.248Z,47.23
2023-05-04T17:02:37.317Z,49.33
2023-05-04T17:05:26.504Z,50.36
2023-05-04T17:08:17.102Z,49.68
2023-05-04T17:11:06.148Z,51.88
2023-05-04T17:13:56.132Z,52.48
2023-05-04T17:16:46.325Z,53.57
2023-05-04T17:19:35.881Z,52.16
2023-05-04T17:22:26.298Z,51.75
2023-05-04T17:25:16.851Z,52.95
2023-05-04T17:28:06.309Z,55.69
2023-05-04T17:30:55.766Z,56.93
2023-05-04T17:33:46.369Z,59.75
2023-05-04T17:36:35.219Z,58.94
2023-05-04T17:39:23.954Z,59.77
2023-05-04T17:42:13.425Z,61.49
2023-05-04T17:45:02.162Z,62.37
2023-05-04T17:47:52.223Z,63.54
2023-05-04T17:50:43.336Z,64.56
2023-05-04T17:53:32.151Z,65.58
2023-05-04T17:56:21.853Z,68.29
2023-05-04T17:59:10.741Z,72.13
2023-05-04T18:02:03.200Z,72.95
2023-05-04T18:04:52.068Z,76.84
2023-05-04T18:07:44.177Z,76.15
2023-05-04T18:10:35.912Z,79.24
2023-05-04T18:13:24.705Z,83.57
2023-05-04T18:16:13.589Z,88.20
2023-05-04T18:19:02.671Z,89.81
2023-05-04T18:21:53.480Z,92.83
2023-05-04T18:24:49.896Z,97.43
2023-05-04T18:27:38.662Z,97.97
2023-05-04T18:30:27.539Z,100.00
2023-05-04T18:33:16.511Z,100.00
2023-05-04T18:36:06.011Z,100.00
2023-05-04T18:38:56.006Z,100.00
2023-05-04T18:41:48.722Z,100.00
2023-05-04T18:44:40.680Z,100.00
2023-05-04T18:47:29.621Z,100.00
2023-05-04T18:50:21.378Z,100.00
2023-05-04T18:53:10.171Z,100.00
2023-05-04T18:56:04.155Z,100.00
2023-05-04T18:58:54.299Z,100.00
2023-05-04T19:01:43.292Z,100.00
2023-05-04T19:04:32.138Z,100.00
2023-05-04T19:07:21.010Z,100.00
2023-05-04T19:10:11.275Z,100.00
2023-05-04T19:13:01.245Z,100.00
2023-05-04T19:15:51.735Z,100.00
2023-05-04T19:18:43.099Z,100.00
2023-05-04T19:21:31.892Z,100.00
2023-05-04T19:24:21.088Z,100.00
2023-05-04T19:27:10.451Z,100.00
2023-05-04T19:29:59.381Z,100.00
2023-05-04T19:32:49.960Z,100.00
2023-05-04T19:35:41.996Z,100.00
2023-05-04T19:38:31.290Z,100.00
2023-05-04T19:41:22.209Z,100.00
2023-05-04T19:44:11.959Z,100.00
2023-05-04T19:47:01.069Z,100.00
2023-05-04T19:49:51.249Z,100.00
2023-05-04T19:52:41.243Z,100.00
2023-05-04T19:55:30.041Z,100.00
2023-05-04T19:58:18.903Z,100.00
2023-05-04T20:01:07.795Z,100.00
2023-05-04T20:03:56.661Z,100.00
2023-05-04T20:06:47.900Z,100.00
2023-05-04T20:09:36.828Z,100.00
2023-05-04T20:12:26.392Z,100.00
2023-05-04T20:15:16.028Z,100.00
2023-05-04T20:18:05.181Z,100.00
2023-05-04T20:20:54.030Z,100.00
2023-05-04T20:23:44.541Z,100.00
2023-05-04T20:26:39.317Z,100.00
2023-05-04T20:29:28.957Z,100.00
2023-05-04T20:32:17.727Z,100.00
2023-05-04T20:35:09.094Z,100.00
2023-05-04T20:37:59.175Z,100.00
2023-05-04T20:40:50.451Z,100.00
2023-05-04T20:43:40.792Z,100.00
2023-05-04T20:46:33.212Z,100.00
2023-05-04T20:49:22.064Z,100.00
2023-05-04T20:52:12.107Z,100.00
2023-05-04T20:55:01.401Z,100.00
2023-05-04T20:57:52.169Z,100.00
2023-05-04T21:00:41.146Z,100.00
2023-05-04T21:03:30.430Z,100.00
2023-05-04T21:06:19.216Z,100.00
2023-05-04T21:09:10.109Z,100.00
2023-05-04T21:11:59.403Z,100.00
2023-05-04T21:14:49.531Z,100.00
2023-05-04T21:17:38.241Z,100.00
2023-05-04T21:20:27.103Z,100.00
2023-05-04T21:23:16.187Z,100.00
2023-05-04T21:26:06.046Z,100.00
2023-05-04T21:28:54.788Z,100.00
2023-05-04T21:31:44.920Z,100.00
2023-05-04T21:34:33.641Z,100.00
2023-05-04T21:37:22.474Z,100.00
2023-05-04T21:40:12.000Z,100.00
2023-05-04T21:43:01.446Z,100.00
2023-05-04T21:45:50.511Z,100.00
2023-05-04T21:48:41.064Z,100.00
2023-05-04T21:51:29.907Z,100.00
2023-05-04T21:54:23.562Z,100.00
2023-05-04T21:57:12.263Z,100.00
2023-05-04T22:00:01.224Z,100.00
2023-05-04T22:02:50.550Z,100.00
2023-05-04T22:05:40.643Z,100.00
2023-05-04T22:08:30.514Z,100.00
2023-05-04T22:11:19.408Z,100.00
2023-05-04T22:14:08.259Z,100.00
2023-05-04T22:16:57.077Z,100.00
2023-05-04T22:19:45.966Z,100.00
2023-05-04T22:22:36.480Z,100.00
2023-05-04T22:25:25.706Z,100.00
2023-05-04T22:28:14.389Z,100.00
2023-05-04T22:31:03.199Z,100.00
2023-05-04T22:33:51.957Z,100.00
2023-05-04T22:36:40.839Z,100.00
2023-05-04T22:39:30.879Z,100.00
2023-05-04T22:42:19.546Z,100.00
2023-05-04T22:45:09.915Z,100.00
2023-05-04T22:47:58.728Z,100.00
2023-05-04T22:50:48.516Z,100.00
2023-05-04T22:53:37.228Z,100.00
2023-05-04T22:56:27.276Z,100.00
2023-05-04T22:59:15.975Z,100.00
2023-05-04T23:02:04.878Z,100.00
2023-05-04T23:04:54.089Z,100.00
2023-05-04T23:07:42.873Z,100.00
2023-05-04T23:10:31.923Z,100.00
2023-05-04T23:13:21.954Z,100.00
2023-05-04T23:16:10.787Z,100.00
2023-05-04T23:18:59.583Z,100.00
2023-05-04T23:21:48.300Z,100.00
2023-05-04T23:24:37.192Z,100.00
2023-05-04T23:27:25.896Z,100.00
2023-05-04T23:30:16.234Z,100.00
2023-05-04T23:33:05.456Z,100.00
2023-05-04T23:35:56.523Z,100.00
2023-05-04T23:38:45.251Z,100.00
2023-05-04T23:41:34.138Z,100.00
2023-05-04T23:44:22.844Z,100.00
2023-05-04T23:47:15.241Z,100.00
2023-05-04T23:50:04.142Z,100.00
2023-05-04T23:52:52.874Z,100.00
2023-05-04T23:55:41.487Z,100.00
2023-05-04T23:58:30.661Z,100.00
